sensor_id;sensor_type;location;lat;lon;timestamp;pressure;altitude;pressure_sealevel;temperature;humidity
10470;BME280;5282;47.052;15.458;2022-12-07T00:00:18;97385.41;;;1.73;100.00
10470;BME280;5282;47.052;15.458;2022-12-07T00:02:46;97389.91;;;1.48;100.00
10470;BME280;5282;47.052;15.458;2022-12-07T00:05:13;97389.25;;;1.69;100.00
10470;BME280;5282;47.052;15.458;2022-12-07T00:07:42;97385.56;;;1.83;100.00
10470;BME280;5282;47.052;15.458;2022-12-07T00:10:09;97369.03;;;1.91;100.00
10470;BME280;5282;47.052;15.458;2022-12-07T00:12:37;97372.28;;;1.83;100.00
10470;BME280;5282;47.052;15.458;2022-12-07T00:15:06;97375.38;;;1.65;100.00
10470;BME280;5282;47.052;15.458;2022-12-07T00:17:32;97367.06;;;1.70;100.00
10470;BME280;5282;47.052;15.458;2022-12-07T00:20:00;97362.34;;;1.74;100.00
10470;BME280;5282;47.052;15.458;2022-12-07T00:22:27;97368.34;;;1.64;100.00
10470;BME280;5282;47.052;15.458;2022-12-07T00:24:56;97369.88;;;1.56;100.00
10470;BME280;5282;47.052;15.458;2022-12-07T00:27:23;97366.97;;;1.83;100.00
10470;BME280;5282;47.052;15.458;2022-12-07T00:29:50;97364.19;;;1.84;100.00
10470;BME280;5282;47.052;15.458;2022-12-07T00:32:18;97368.53;;;1.74;100.00
10470;BME280;5282;47.052;15.458;2022-12-07T00:34:44;97368.75;;;1.71;100.00
10470;BME280;5282;47.052;15.458;2022-12-07T00:37:12;97372.72;;;1.65;100.00
10470;BME280;5282;47.052;15.458;2022-12-07T00:39:39;97370.00;;;1.78;100.00
10470;BME280;5282;47.052;15.458;2022-12-07T00:42:07;97361.53;;;1.73;100.00
10470;BME280;5282;47.052;15.458;2022-12-07T00:44:34;97364.69;;;1.78;100.00
10470;BME280;5282;47.052;15.458;2022-12-07T00:47:01;97368.56;;;1.85;100.00
10470;BME280;5282;47.052;15.458;2022-12-07T00:49:31;97369.66;;;1.59;100.00
10470;BME280;5282;47.052;15.458;2022-12-07T00:51:58;97370.09;;;1.41;100.00
10470;BME280;5282;47.052;15.458;2022-12-07T00:54:25;97364.75;;;1.65;100.00
10470;BME280;5282;47.052;15.458;2022-12-07T00:56:52;97365.94;;;1.61;100.00
10470;BME280;5282;47.052;15.458;2022-12-07T00:59:21;97366.22;;;1.69;100.00
10470;BME280;5282;47.052;15.458;2022-12-07T01:01:49;97367.81;;;1.83;100.00
10470;BME280;5282;47.052;15.458;2022-12-07T01:04:19;97364.97;;;1.62;100.00
10470;BME280;5282;47.052;15.458;2022-12-07T01:06:50;97370.38;;;1.49;100.00
10470;BME280;5282;47.052;15.458;2022-12-07T01:09:25;97375.00;;;1.34;100.00
10470;BME280;5282;47.052;15.458;2022-12-07T01:11:54;97367.38;;;1.54;100.00
10470;BME280;5282;47.052;15.458;2022-12-07T01:14:31;97363.09;;;1.40;100.00
10470;BME280;5282;47.052;15.458;2022-12-07T01:17:03;97370.63;;;1.58;100.00
10470;BME280;5282;47.052;15.458;2022-12-07T01:19:35;97368.75;;;1.71;100.00
10470;BME280;5282;47.052;15.458;2022-12-07T01:22:06;97373.84;;;1.74;100.00
10470;BME280;5282;47.052;15.458;2022-12-07T01:24:35;97373.63;;;1.53;100.00
10470;BME280;5282;47.052;15.458;2022-12-07T01:27:05;97369.22;;;1.65;100.00
10470;BME280;5282;47.052;15.458;2022-12-07T01:29:37;97374.72;;;1.50;100.00
10470;BME280;5282;47.052;15.458;2022-12-07T01:32:07;97366.06;;;1.60;100.00
10470;BME280;5282;47.052;15.458;2022-12-07T01:34:35;97355.09;;;1.64;100.00
10470;BME280;5282;47.052;15.458;2022-12-07T01:37:11;97359.94;;;1.35;100.00
10470;BME280;5282;47.052;15.458;2022-12-07T01:39:40;97368.31;;;1.17;100.00
10470;BME280;5282;47.052;15.458;2022-12-07T01:42:12;97357.22;;;1.23;100.00
10470;BME280;5282;47.052;15.458;2022-12-07T01:47:55;97356.19;;;1.62;100.00
10470;BME280;5282;47.052;15.458;2022-12-07T01:50:28;97346.78;;;1.69;100.00
10470;BME280;5282;47.052;15.458;2022-12-07T01:53:06;97346.13;;;1.54;100.00
10470;BME280;5282;47.052;15.458;2022-12-07T01:55:44;97353.75;;;1.59;100.00
10470;BME280;5282;47.052;15.458;2022-12-07T01:58:15;97343.28;;;1.68;100.00
10470;BME280;5282;47.052;15.458;2022-12-07T02:00:44;97336.66;;;1.74;100.00
10470;BME280;5282;47.052;15.458;2022-12-07T02:03:18;97338.41;;;1.51;100.00
10470;BME280;5282;47.052;15.458;2022-12-07T02:05:47;97336.06;;;1.35;100.00
10470;BME280;5282;47.052;15.458;2022-12-07T02:08:18;97337.34;;;1.29;100.00
10470;BME280;5282;47.052;15.458;2022-12-07T02:10:46;97334.16;;;1.48;100.00
10470;BME280;5282;47.052;15.458;2022-12-07T02:13:16;97329.13;;;1.57;100.00
10470;BME280;5282;47.052;15.458;2022-12-07T02:15:59;97328.09;;;1.71;100.00
10470;BME280;5282;47.052;15.458;2022-12-07T02:18:43;97323.06;;;1.43;100.00
10470;BME280;5282;47.052;15.458;2022-12-07T02:21:17;97322.25;;;1.54;100.00
10470;BME280;5282;47.052;15.458;2022-12-07T02:24:03;97323.69;;;1.47;100.00
10470;BME280;5282;47.052;15.458;2022-12-07T02:29:39;97318.38;;;1.47;100.00
10470;BME280;5282;47.052;15.458;2022-12-07T02:32:13;97318.69;;;1.31;100.00
10470;BME280;5282;47.052;15.458;2022-12-07T02:34:48;97314.75;;;1.48;100.00
10470;BME280;5282;47.052;15.458;2022-12-07T02:37:29;97318.50;;;1.57;100.00
10470;BME280;5282;47.052;15.458;2022-12-07T02:40:05;97320.13;;;1.35;100.00
10470;BME280;5282;47.052;15.458;2022-12-07T02:42:38;97318.75;;;1.18;100.00
10470;BME280;5282;47.052;15.458;2022-12-07T02:45:10;97323.53;;;1.37;100.00
10470;BME280;5282;47.052;15.458;2022-12-07T02:47:41;97326.59;;;1.19;100.00
10470;BME280;5282;47.052;15.458;2022-12-07T02:50:10;97326.56;;;1.44;100.00
10470;BME280;5282;47.052;15.458;2022-12-07T02:52:40;97319.47;;;1.56;100.00
10470;BME280;5282;47.052;15.458;2022-12-07T02:55:08;97319.97;;;1.61;100.00
10470;BME280;5282;47.052;15.458;2022-12-07T02:57:45;97314.19;;;1.67;100.00
10470;BME280;5282;47.052;15.458;2022-12-07T03:00:18;97316.69;;;1.46;100.00
10470;BME280;5282;47.052;15.458;2022-12-07T03:02:53;97322.22;;;1.43;100.00
10470;BME280;5282;47.052;15.458;2022-12-07T03:05:47;97317.69;;;1.56;100.00
10470;BME280;5282;47.052;15.458;2022-12-07T03:08:30;97319.81;;;1.51;100.00
10470;BME280;5282;47.052;15.458;2022-12-07T03:11:03;97325.50;;;1.58;100.00
10470;BME280;5282;47.052;15.458;2022-12-07T03:13:37;97318.28;;;1.60;100.00
10470;BME280;5282;47.052;15.458;2022-12-07T03:16:16;97315.38;;;1.51;100.00
10470;BME280;5282;47.052;15.458;2022-12-07T03:18:49;97316.13;;;1.65;100.00
10470;BME280;5282;47.052;15.458;2022-12-07T03:21:21;97308.63;;;1.59;100.00
10470;BME280;5282;47.052;15.458;2022-12-07T03:23:53;97312.69;;;1.40;100.00
10470;BME280;5282;47.052;15.458;2022-12-07T03:26:28;97305.47;;;1.42;100.00
10470;BME280;5282;47.052;15.458;2022-12-07T03:29:01;97302.53;;;1.34;100.00
10470;BME280;5282;47.052;15.458;2022-12-07T03:31:34;97302.19;;;1.50;100.00
10470;BME280;5282;47.052;15.458;2022-12-07T03:34:11;97295.84;;;1.52;100.00
10470;BME280;5282;47.052;15.458;2022-12-07T03:36:47;97297.38;;;1.44;100.00
10470;BME280;5282;47.052;15.458;2022-12-07T03:39:23;97290.72;;;1.38;100.00
10470;BME280;5282;47.052;15.458;2022-12-07T03:41:51;97292.16;;;1.31;100.00
10470;BME280;5282;47.052;15.458;2022-12-07T03:44:19;97298.38;;;1.18;100.00
10470;BME280;5282;47.052;15.458;2022-12-07T03:46:53;97293.16;;;0.81;100.00
10470;BME280;5282;47.052;15.458;2022-12-07T03:49:32;97296.28;;;0.86;100.00
10470;BME280;5282;47.052;15.458;2022-12-07T03:52:11;97290.84;;;0.76;100.00
10470;BME280;5282;47.052;15.458;2022-12-07T03:54:43;97296.56;;;0.70;100.00
10470;BME280;5282;47.052;15.458;2022-12-07T03:57:12;97299.13;;;0.72;100.00
10470;BME280;5282;47.052;15.458;2022-12-07T03:59:40;97294.44;;;1.00;100.00
10470;BME280;5282;47.052;15.458;2022-12-07T04:02:11;97298.94;;;0.86;100.00
10470;BME280;5282;47.052;15.458;2022-12-07T04:04:39;97305.00;;;1.13;100.00
10470;BME280;5282;47.052;15.458;2022-12-07T04:07:06;97302.63;;;0.97;100.00
10470;BME280;5282;47.052;15.458;2022-12-07T04:09:34;97307.69;;;0.75;100.00
10470;BME280;5282;47.052;15.458;2022-12-07T04:12:01;97313.59;;;0.79;100.00
10470;BME280;5282;47.052;15.458;2022-12-07T04:14:30;97313.00;;;1.00;100.00
10470;BME280;5282;47.052;15.458;2022-12-07T04:16:58;97308.72;;;0.86;100.00
10470;BME280;5282;47.052;15.458;2022-12-07T04:19:29;97306.63;;;1.02;100.00
10470;BME280;5282;47.052;15.458;2022-12-07T04:21:58;97306.84;;;0.99;100.00
10470;BME280;5282;47.052;15.458;2022-12-07T04:24:26;97298.63;;;0.91;100.00
10470;BME280;5282;47.052;15.458;2022-12-07T04:26:54;97298.38;;;0.94;100.00
10470;BME280;5282;47.052;15.458;2022-12-07T04:29:22;97295.78;;;0.81;100.00
10470;BME280;5282;47.052;15.458;2022-12-07T04:31:50;97300.41;;;0.66;100.00
10470;BME280;5282;47.052;15.458;2022-12-07T04:34:19;97302.72;;;0.71;100.00
10470;BME280;5282;47.052;15.458;2022-12-07T04:36:48;97298.94;;;0.86;100.00
10470;BME280;5282;47.052;15.458;2022-12-07T04:39:19;97301.31;;;0.78;100.00
10470;BME280;5282;47.052;15.458;2022-12-07T04:41:47;97297.81;;;1.02;100.00
10470;BME280;5282;47.052;15.458;2022-12-07T04:44:15;97296.94;;;0.90;100.00
10470;BME280;5282;47.052;15.458;2022-12-07T04:46:43;97299.50;;;1.03;100.00
10470;BME280;5282;47.052;15.458;2022-12-07T04:49:13;97298.72;;;0.89;100.00
10470;BME280;5282;47.052;15.458;2022-12-07T04:51:40;97296.56;;;0.70;100.00
10470;BME280;5282;47.052;15.458;2022-12-07T04:54:08;97291.31;;;0.82;100.00
10470;BME280;5282;47.052;15.458;2022-12-07T04:56:38;97291.91;;;0.74;100.00
10470;BME280;5282;47.052;15.458;2022-12-07T04:59:05;97300.91;;;0.71;100.00
10470;BME280;5282;47.052;15.458;2022-12-07T05:01:35;97301.16;;;0.68;100.00
10470;BME280;5282;47.052;15.458;2022-12-07T05:04:03;97291.63;;;0.90;100.00
10470;BME280;5282;47.052;15.458;2022-12-07T05:06:30;97291.56;;;1.03;100.00
10470;BME280;5282;47.052;15.458;2022-12-07T05:08:57;97280.56;;;0.72;100.00
10470;BME280;5282;47.052;15.458;2022-12-07T05:11:27;97292.41;;;0.55;100.00
10470;BME280;5282;47.052;15.458;2022-12-07T05:14:09;97290.41;;;0.45;100.00
10470;BME280;5282;47.052;15.458;2022-12-07T05:16:38;97292.22;;;0.69;100.00
10470;BME280;5282;47.052;15.458;2022-12-07T05:19:06;97289.69;;;0.68;100.00
10470;BME280;5282;47.052;15.458;2022-12-07T05:21:34;97296.34;;;0.49;100.00
10470;BME280;5282;47.052;15.458;2022-12-07T05:24:01;97300.69;;;0.37;100.00
10470;BME280;5282;47.052;15.458;2022-12-07T05:26:30;97298.88;;;0.51;100.00
10470;BME280;5282;47.052;15.458;2022-12-07T05:28:57;97299.34;;;0.69;100.00
10470;BME280;5282;47.052;15.458;2022-12-07T05:31:26;97290.50;;;0.81;100.00
10470;BME280;5282;47.052;15.458;2022-12-07T05:33:53;97300.69;;;0.74;100.00
10470;BME280;5282;47.052;15.458;2022-12-07T05:36:21;97300.34;;;0.55;100.00
10470;BME280;5282;47.052;15.458;2022-12-07T05:38:51;97303.34;;;0.37;100.00
10470;BME280;5282;47.052;15.458;2022-12-07T05:41:18;97305.00;;;0.14;100.00
10470;BME280;5282;47.052;15.458;2022-12-07T05:44:05;97303.50;;;0.23;100.00
10470;BME280;5282;47.052;15.458;2022-12-07T05:46:32;97296.25;;;0.38;100.00
10470;BME280;5282;47.052;15.458;2022-12-07T05:49:01;97300.94;;;0.21;100.00
10470;BME280;5282;47.052;15.458;2022-12-07T05:51:28;97298.91;;;0.38;100.00
10470;BME280;5282;47.052;15.458;2022-12-07T05:53:56;97302.31;;;0.40;100.00
10470;BME280;5282;47.052;15.458;2022-12-07T05:56:23;97303.16;;;0.27;100.00
10470;BME280;5282;47.052;15.458;2022-12-07T05:58:50;97301.22;;;0.42;100.00
10470;BME280;5282;47.052;15.458;2022-12-07T06:01:36;97306.47;;;0.55;100.00
10470;BME280;5282;47.052;15.458;2022-12-07T06:04:04;97313.53;;;0.30;100.00
10470;BME280;5282;47.052;15.458;2022-12-07T06:06:30;97302.09;;;0.30;100.00
10470;BME280;5282;47.052;15.458;2022-12-07T06:08:57;97308.44;;;0.40;100.00
10470;BME280;5282;47.052;15.458;2022-12-07T06:11:24;97305.25;;;0.35;100.00
10470;BME280;5282;47.052;15.458;2022-12-07T06:14:09;97308.56;;;0.39;100.00
10470;BME280;5282;47.052;15.458;2022-12-07T06:16:38;97310.09;;;0.54;100.00
10470;BME280;5282;47.052;15.458;2022-12-07T06:19:05;97312.78;;;0.41;100.00
10470;BME280;5282;47.052;15.458;2022-12-07T06:21:32;97320.00;;;0.64;100.00
10470;BME280;5282;47.052;15.458;2022-12-07T06:23:59;97319.66;;;0.44;100.00
10470;BME280;5282;47.052;15.458;2022-12-07T06:26:26;97329.66;;;0.27;100.00
10470;BME280;5282;47.052;15.458;2022-12-07T06:28:52;97324.78;;;0.21;100.00
10470;BME280;5282;47.052;15.458;2022-12-07T06:31:19;97334.28;;;0.24;100.00
10470;BME280;5282;47.052;15.458;2022-12-07T06:33:48;97327.34;;;0.23;100.00
10470;BME280;5282;47.052;15.458;2022-12-07T06:36:15;97323.81;;;0.22;100.00
10470;BME280;5282;47.052;15.458;2022-12-07T06:38:42;97333.91;;;0.17;100.00
10470;BME280;5282;47.052;15.458;2022-12-07T06:41:08;97327.91;;;0.39;100.00
10470;BME280;5282;47.052;15.458;2022-12-07T06:43:35;97337.44;;;0.42;100.00
10470;BME280;5282;47.052;15.458;2022-12-07T06:46:02;97336.72;;;0.40;100.00
10470;BME280;5282;47.052;15.458;2022-12-07T06:48:29;97343.06;;;0.37;100.00
10470;BME280;5282;47.052;15.458;2022-12-07T06:50:57;97345.09;;;0.34;100.00
10470;BME280;5282;47.052;15.458;2022-12-07T06:53:24;97346.75;;;0.60;100.00
10470;BME280;5282;47.052;15.458;2022-12-07T06:55:53;97358.00;;;0.51;100.00
10470;BME280;5282;47.052;15.458;2022-12-07T06:58:20;97360.56;;;0.40;100.00
10470;BME280;5282;47.052;15.458;2022-12-07T07:00:48;97360.88;;;0.35;100.00
10470;BME280;5282;47.052;15.458;2022-12-07T07:03:16;97362.25;;;0.41;100.00
10470;BME280;5282;47.052;15.458;2022-12-07T07:05:43;97355.38;;;0.51;100.00
10470;BME280;5282;47.052;15.458;2022-12-07T07:08:12;97358.22;;;0.35;100.00
10470;BME280;5282;47.052;15.458;2022-12-07T07:10:39;97359.88;;;0.62;100.00
10470;BME280;5282;47.052;15.458;2022-12-07T07:13:07;97376.84;;;0.46;100.00
10470;BME280;5282;47.052;15.458;2022-12-07T07:15:34;97367.78;;;0.38;100.00
10470;BME280;5282;47.052;15.458;2022-12-07T07:18:04;97368.94;;;0.34;100.00
10470;BME280;5282;47.052;15.458;2022-12-07T07:20:31;97366.34;;;0.58;100.00
10470;BME280;5282;47.052;15.458;2022-12-07T07:22:58;97358.88;;;0.76;100.00
10470;BME280;5282;47.052;15.458;2022-12-07T07:25:26;97359.03;;;0.61;100.00
10470;BME280;5282;47.052;15.458;2022-12-07T07:27:53;97364.75;;;0.55;100.00
10470;BME280;5282;47.052;15.458;2022-12-07T07:30:21;97371.13;;;0.53;100.00
10470;BME280;5282;47.052;15.458;2022-12-07T07:32:48;97374.13;;;0.48;100.00
10470;BME280;5282;47.052;15.458;2022-12-07T07:35:15;97368.59;;;0.51;100.00
10470;BME280;5282;47.052;15.458;2022-12-07T07:37:42;97363.97;;;0.79;100.00
10470;BME280;5282;47.052;15.458;2022-12-07T07:40:10;97361.41;;;0.40;100.00
10470;BME280;5282;47.052;15.458;2022-12-07T07:42:40;97364.00;;;0.66;100.00
10470;BME280;5282;47.052;15.458;2022-12-07T07:45:07;97365.94;;;0.88;100.00
10470;BME280;5282;47.052;15.458;2022-12-07T07:47:37;97365.59;;;1.06;100.00
10470;BME280;5282;47.052;15.458;2022-12-07T07:50:05;97363.72;;;1.19;100.00
10470;BME280;5282;47.052;15.458;2022-12-07T07:52:32;97365.91;;;1.26;100.00
10470;BME280;5282;47.052;15.458;2022-12-07T07:54:59;97370.09;;;1.17;100.00
10470;BME280;5282;47.052;15.458;2022-12-07T07:57:26;97365.25;;;1.11;100.00
10470;BME280;5282;47.052;15.458;2022-12-07T07:59:54;97360.13;;;1.20;100.00
10470;BME280;5282;47.052;15.458;2022-12-07T08:02:21;97366.03;;;1.24;100.00
10470;BME280;5282;47.052;15.458;2022-12-07T08:04:48;97366.31;;;1.08;100.00
10470;BME280;5282;47.052;15.458;2022-12-07T08:07:16;97369.69;;;0.86;100.00
10470;BME280;5282;47.052;15.458;2022-12-07T08:09:42;97370.00;;;0.81;100.00
10470;BME280;5282;47.052;15.458;2022-12-07T08:12:09;97374.50;;;1.05;100.00
10470;BME280;5282;47.052;15.458;2022-12-07T08:14:36;97374.94;;;0.99;100.00
10470;BME280;5282;47.052;15.458;2022-12-07T08:17:04;97373.41;;;0.83;100.00
10470;BME280;5282;47.052;15.458;2022-12-07T08:19:34;97375.59;;;0.89;100.00
10470;BME280;5282;47.052;15.458;2022-12-07T08:22:01;97376.94;;;1.08;100.00
10470;BME280;5282;47.052;15.458;2022-12-07T08:24:33;97377.00;;;1.19;100.00
10470;BME280;5282;47.052;15.458;2022-12-07T08:27:00;97376.41;;;1.27;100.00
10470;BME280;5282;47.052;15.458;2022-12-07T08:29:29;97373.19;;;1.35;100.00
10470;BME280;5282;47.052;15.458;2022-12-07T08:31:57;97377.19;;;1.41;100.00
10470;BME280;5282;47.052;15.458;2022-12-07T08:34:27;97381.66;;;1.40;100.00
10470;BME280;5282;47.052;15.458;2022-12-07T08:36:54;97388.38;;;1.33;100.00
10470;BME280;5282;47.052;15.458;2022-12-07T08:39:21;97387.94;;;1.39;100.00
10470;BME280;5282;47.052;15.458;2022-12-07T08:41:48;97383.59;;;1.38;100.00
10470;BME280;5282;47.052;15.458;2022-12-07T08:44:16;97400.41;;;1.26;100.00
10470;BME280;5282;47.052;15.458;2022-12-07T08:46:46;97392.75;;;1.45;100.00
10470;BME280;5282;47.052;15.458;2022-12-07T08:49:17;97399.09;;;1.56;100.00
10470;BME280;5282;47.052;15.458;2022-12-07T08:51:48;97401.47;;;1.47;100.00
10470;BME280;5282;47.052;15.458;2022-12-07T08:54:16;97401.81;;;1.18;100.00
10470;BME280;5282;47.052;15.458;2022-12-07T08:56:44;97403.66;;;1.05;100.00
10470;BME280;5282;47.052;15.458;2022-12-07T08:59:14;97411.75;;;1.28;100.00
10470;BME280;5282;47.052;15.458;2022-12-07T09:01:41;97408.66;;;1.58;100.00
10470;BME280;5282;47.052;15.458;2022-12-07T09:04:08;97409.84;;;1.30;100.00
10470;BME280;5282;47.052;15.458;2022-12-07T09:06:35;97416.22;;;1.51;100.00
10470;BME280;5282;47.052;15.458;2022-12-07T09:09:03;97412.19;;;1.70;100.00
10470;BME280;5282;47.052;15.458;2022-12-07T09:11:31;97406.16;;;1.79;100.00
10470;BME280;5282;47.052;15.458;2022-12-07T09:13:58;97408.81;;;1.79;100.00
10470;BME280;5282;47.052;15.458;2022-12-07T09:16:25;97406.06;;;1.81;100.00
10470;BME280;5282;47.052;15.458;2022-12-07T09:18:52;97411.25;;;1.82;100.00
10470;BME280;5282;47.052;15.458;2022-12-07T09:21:19;97400.06;;;1.90;100.00
10470;BME280;5282;47.052;15.458;2022-12-07T09:23:46;97404.22;;;1.70;100.00
10470;BME280;5282;47.052;15.458;2022-12-07T09:26:14;97405.06;;;1.71;100.00
10470;BME280;5282;47.052;15.458;2022-12-07T09:28:41;97398.97;;;1.93;100.00
10470;BME280;5282;47.052;15.458;2022-12-07T09:31:09;97400.22;;;2.00;100.00
10470;BME280;5282;47.052;15.458;2022-12-07T09:33:36;97399.13;;;2.03;100.00
10470;BME280;5282;47.052;15.458;2022-12-07T09:36:03;97399.03;;;2.15;100.00
10470;BME280;5282;47.052;15.458;2022-12-07T09:38:33;97390.59;;;2.22;100.00
10470;BME280;5282;47.052;15.458;2022-12-07T09:41:04;97393.63;;;2.28;100.00
10470;BME280;5282;47.052;15.458;2022-12-07T09:43:35;97384.06;;;2.37;100.00
10470;BME280;5282;47.052;15.458;2022-12-07T09:46:03;97387.69;;;2.47;100.00
10470;BME280;5282;47.052;15.458;2022-12-07T09:48:32;97385.03;;;2.47;100.00
10470;BME280;5282;47.052;15.458;2022-12-07T09:51:01;97385.16;;;2.35;100.00
10470;BME280;5282;47.052;15.458;2022-12-07T09:53:30;97378.28;;;2.55;100.00
10470;BME280;5282;47.052;15.458;2022-12-07T09:56:00;97376.97;;;2.60;100.00
10470;BME280;5282;47.052;15.458;2022-12-07T09:58:29;97372.25;;;2.53;100.00
10470;BME280;5282;47.052;15.458;2022-12-07T10:01:01;97364.25;;;2.75;100.00
10470;BME280;5282;47.052;15.458;2022-12-07T10:03:32;97368.84;;;2.85;100.00
10470;BME280;5282;47.052;15.458;2022-12-07T10:05:59;97360.88;;;2.62;100.00
10470;BME280;5282;47.052;15.458;2022-12-07T10:08:26;97362.94;;;2.70;100.00
10470;BME280;5282;47.052;15.458;2022-12-07T10:10:55;97360.41;;;2.57;100.00
10470;BME280;5282;47.052;15.458;2022-12-07T10:13:34;97361.13;;;2.82;100.00
10470;BME280;5282;47.052;15.458;2022-12-07T10:16:03;97362.31;;;2.89;100.00
10470;BME280;5282;47.052;15.458;2022-12-07T10:18:33;97354.94;;;2.81;100.00
10470;BME280;5282;47.052;15.458;2022-12-07T10:21:10;97356.63;;;2.93;100.00
10470;BME280;5282;47.052;15.458;2022-12-07T10:23:39;97349.63;;;2.70;100.00
10470;BME280;5282;47.052;15.458;2022-12-07T10:26:28;97359.53;;;2.79;100.00
10470;BME280;5282;47.052;15.458;2022-12-07T10:28:59;97357.56;;;3.04;100.00
10470;BME280;5282;47.052;15.458;2022-12-07T10:31:29;97360.09;;;3.05;100.00
10470;BME280;5282;47.052;15.458;2022-12-07T10:33:57;97362.25;;;3.12;100.00
10470;BME280;5282;47.052;15.458;2022-12-07T10:36:26;97349.09;;;3.10;100.00
10470;BME280;5282;47.052;15.458;2022-12-07T10:39:00;97352.59;;;3.11;100.00
10470;BME280;5282;47.052;15.458;2022-12-07T10:41:29;97343.00;;;3.19;100.00
10470;BME280;5282;47.052;15.458;2022-12-07T10:43:57;97343.34;;;3.26;100.00
10470;BME280;5282;47.052;15.458;2022-12-07T10:50:04;97344.53;;;2.89;100.00
10470;BME280;5282;47.052;15.458;2022-12-07T10:52:58;97330.47;;;3.43;100.00
10470;BME280;5282;47.052;15.458;2022-12-07T10:55:43;97336.38;;;3.46;100.00
10470;BME280;5282;47.052;15.458;2022-12-07T10:58:25;97338.88;;;3.59;100.00
10470;BME280;5282;47.052;15.458;2022-12-07T11:00:58;97327.75;;;3.54;100.00
10470;BME280;5282;47.052;15.458;2022-12-07T11:03:49;97328.34;;;4.00;100.00
10470;BME280;5282;47.052;15.458;2022-12-07T11:06:27;97323.44;;;4.26;100.00
10470;BME280;5282;47.052;15.458;2022-12-07T11:12:03;97322.09;;;4.83;100.00
10470;BME280;5282;47.052;15.458;2022-12-07T11:14:37;97327.03;;;4.97;100.00
10470;BME280;5282;47.052;15.458;2022-12-07T11:17:09;97327.06;;;5.07;100.00
10470;BME280;5282;47.052;15.458;2022-12-07T11:19:48;97327.16;;;4.14;100.00
10470;BME280;5282;47.052;15.458;2022-12-07T11:22:28;97316.97;;;3.77;100.00
10470;BME280;5282;47.052;15.458;2022-12-07T11:25:15;97313.19;;;4.72;100.00
10470;BME280;5282;47.052;15.458;2022-12-07T11:27:48;97306.69;;;5.06;100.00
10470;BME280;5282;47.052;15.458;2022-12-07T11:30:23;97305.97;;;5.04;100.00
10470;BME280;5282;47.052;15.458;2022-12-07T11:33:04;97306.81;;;5.14;100.00
10470;BME280;5282;47.052;15.458;2022-12-07T11:35:45;97310.47;;;5.13;100.00
10470;BME280;5282;47.052;15.458;2022-12-07T11:38:18;97308.38;;;4.56;100.00
10470;BME280;5282;47.052;15.458;2022-12-07T11:40:49;97302.00;;;4.38;100.00
10470;BME280;5282;47.052;15.458;2022-12-07T11:43:21;97298.84;;;4.54;100.00
10470;BME280;5282;47.052;15.458;2022-12-07T11:45:54;97292.38;;;4.46;100.00
10470;BME280;5282;47.052;15.458;2022-12-07T11:48:30;97297.44;;;3.88;100.00
10470;BME280;5282;47.052;15.458;2022-12-07T11:51:00;97289.84;;;4.14;100.00
10470;BME280;5282;47.052;15.458;2022-12-07T11:53:35;97285.56;;;4.32;100.00
10470;BME280;5282;47.052;15.458;2022-12-07T11:56:09;97279.56;;;4.30;100.00
10470;BME280;5282;47.052;15.458;2022-12-07T11:58:44;97282.19;;;3.99;100.00
10470;BME280;5282;47.052;15.458;2022-12-07T12:01:22;97282.81;;;4.13;100.00
10470;BME280;5282;47.052;15.458;2022-12-07T12:03:56;97285.00;;;3.98;100.00
10470;BME280;5282;47.052;15.458;2022-12-07T12:06:24;97282.03;;;4.22;100.00
10470;BME280;5282;47.052;15.458;2022-12-07T12:08:56;97290.19;;;3.99;100.00
10470;BME280;5282;47.052;15.458;2022-12-07T12:11:43;97289.31;;;4.20;100.00
10470;BME280;5282;47.052;15.458;2022-12-07T12:14:25;97283.50;;;4.46;100.00
10470;BME280;5282;47.052;15.458;2022-12-07T12:20:04;97275.88;;;4.31;100.00
10470;BME280;5282;47.052;15.458;2022-12-07T12:22:37;97271.88;;;4.47;100.00
10470;BME280;5282;47.052;15.458;2022-12-07T12:25:18;97262.13;;;4.77;100.00
10470;BME280;5282;47.052;15.458;2022-12-07T12:27:48;97271.91;;;4.67;100.00
10470;BME280;5282;47.052;15.458;2022-12-07T12:30:30;97266.22;;;5.01;100.00
10470;BME280;5282;47.052;15.458;2022-12-07T12:33:03;97260.34;;;5.07;100.00
10470;BME280;5282;47.052;15.458;2022-12-07T12:35:33;97257.81;;;5.05;100.00
10470;BME280;5282;47.052;15.458;2022-12-07T12:38:25;97260.38;;;4.56;100.00
10470;BME280;5282;47.052;15.458;2022-12-07T12:40:55;97266.88;;;4.73;100.00
10470;BME280;5282;47.052;15.458;2022-12-07T12:43:45;97257.50;;;4.89;100.00
10470;BME280;5282;47.052;15.458;2022-12-07T12:52:50;97274.84;;;4.54;100.00
10470;BME280;5282;47.052;15.458;2022-12-07T12:55:58;97272.41;;;4.82;100.00
10470;BME280;5282;47.052;15.458;2022-12-07T12:58:34;97270.31;;;5.15;100.00
10470;BME280;5282;47.052;15.458;2022-12-07T13:01:37;97266.94;;;5.03;100.00
10470;BME280;5282;47.052;15.458;2022-12-07T13:04:24;97257.94;;;5.04;100.00
10470;BME280;5282;47.052;15.458;2022-12-07T13:06:52;97259.34;;;5.08;100.00
10470;BME280;5282;47.052;15.458;2022-12-07T13:09:22;97257.38;;;5.00;100.00
10470;BME280;5282;47.052;15.458;2022-12-07T13:11:56;97257.81;;;4.96;100.00
10470;BME280;5282;47.052;15.458;2022-12-07T13:14:42;97259.06;;;4.91;100.00
10470;BME280;5282;47.052;15.458;2022-12-07T13:23:31;97257.59;;;4.68;100.00
10470;BME280;5282;47.052;15.458;2022-12-07T13:26:17;97264.75;;;4.57;100.00
10470;BME280;5282;47.052;15.458;2022-12-07T13:28:48;97261.09;;;4.48;100.00
10470;BME280;5282;47.052;15.458;2022-12-07T13:31:34;97270.19;;;4.46;100.00
10470;BME280;5282;47.052;15.458;2022-12-07T13:34:03;97258.28;;;4.50;100.00
10470;BME280;5282;47.052;15.458;2022-12-07T13:36:32;97262.91;;;4.48;100.00
10470;BME280;5282;47.052;15.458;2022-12-07T13:39:15;97263.72;;;4.39;100.00
10470;BME280;5282;47.052;15.458;2022-12-07T13:41:44;97272.69;;;4.38;100.00
10470;BME280;5282;47.052;15.458;2022-12-07T13:44:15;97266.50;;;4.37;100.00
10470;BME280;5282;47.052;15.458;2022-12-07T13:46:48;97264.09;;;4.24;100.00
10470;BME280;5282;47.052;15.458;2022-12-07T13:49:20;97264.53;;;4.29;100.00